sensor_id;sensor_type;location;lat;lon;timestamp;P1;durP1;ratioP1;P2;durP2;ratioP2
63945;SDS011;50122;56.330;43.838;2022-12-18T14:46:49;3.15;;;2.13;;
63945;SDS011;50122;56.330;43.838;2022-12-18T14:51:48;2.42;;;2.20;;
63945;SDS011;50122;56.330;43.838;2022-12-18T14:54:18;5.03;;;3.78;;
63945;SDS011;50122;56.330;43.838;2022-12-18T14:56:55;12.38;;;7.05;;
63945;SDS011;50122;56.330;43.838;2022-12-18T14:59:27;6.95;;;4.75;;
63945;SDS011;50122;56.330;43.838;2022-12-18T15:04:42;10.43;;;5.88;;
63945;SDS011;50122;56.330;43.838;2022-12-18T15:10:00;9.77;;;6.43;;
63945;SDS011;50122;56.330;43.838;2022-12-18T15:12:35;8.95;;;4.07;;
63945;SDS011;50122;56.330;43.838;2022-12-18T15:15:02;5.45;;;3.22;;
63945;SDS011;50122;56.330;43.838;2022-12-18T15:17:31;15.55;;;9.27;;
63945;SDS011;50122;56.330;43.838;2022-12-18T15:20:03;12.00;;;6.65;;
63945;SDS011;50122;56.330;43.838;2022-12-18T15:22:36;15.75;;;7.15;;
63945;SDS011;50122;56.330;43.838;2022-12-18T15:25:20;11.80;;;6.47;;
63945;SDS011;50122;56.330;43.838;2022-12-18T15:28:00;5.68;;;4.05;;
63945;SDS011;50122;56.330;43.838;2022-12-18T15:30:31;14.75;;;8.18;;
63945;SDS011;50122;56.330;43.838;2022-12-18T15:38:52;4.25;;;3.13;;
63945;SDS011;50122;56.330;43.838;2022-12-18T15:41:32;13.55;;;7.00;;
63945;SDS011;50122;56.330;43.838;2022-12-18T15:44:01;11.45;;;7.18;;
63945;SDS011;50122;56.330;43.838;2022-12-18T15:46:29;8.85;;;5.65;;
63945;SDS011;50122;56.330;43.838;2022-12-18T15:49:02;9.30;;;5.63;;
63945;SDS011;50122;56.330;43.838;2022-12-18T15:51:29;9.23;;;5.30;;
63945;SDS011;50122;56.330;43.838;2022-12-18T15:53:58;11.13;;;5.75;;
63945;SDS011;50122;56.330;43.838;2022-12-18T15:56:27;9.60;;;5.93;;
63945;SDS011;50122;56.330;43.838;2022-12-18T15:59:18;9.98;;;6.13;;
63945;SDS011;50122;56.330;43.838;2022-12-18T16:01:46;7.53;;;3.47;;
63945;SDS011;50122;56.330;43.838;2022-12-18T16:04:15;9.27;;;5.50;;
63945;SDS011;50122;56.330;43.838;2022-12-18T16:06:46;5.28;;;3.50;;
63945;SDS011;50122;56.330;43.838;2022-12-18T16:09:35;6.82;;;3.97;;
63945;SDS011;50122;56.330;43.838;2022-12-18T16:12:18;8.02;;;4.85;;
63945;SDS011;50122;56.330;43.838;2022-12-18T16:14:50;11.07;;;6.55;;
63945;SDS011;50122;56.330;43.838;2022-12-18T16:17:19;12.45;;;6.65;;
63945;SDS011;50122;56.330;43.838;2022-12-18T16:19:45;6.90;;;4.03;;
63945;SDS011;50122;56.330;43.838;2022-12-18T16:22:22;10.10;;;6.50;;
63945;SDS011;50122;56.330;43.838;2022-12-18T16:24:51;9.65;;;5.80;;
63945;SDS011;50122;56.330;43.838;2022-12-18T16:27:19;9.75;;;5.20;;
63945;SDS011;50122;56.330;43.838;2022-12-18T16:32:21;4.38;;;3.10;;
63945;SDS011;50122;56.330;43.838;2022-12-18T16:34:49;5.80;;;3.92;;
63945;SDS011;50122;56.330;43.838;2022-12-18T16:37:19;4.55;;;3.58;;
63945;SDS011;50122;56.330;43.838;2022-12-18T16:39:48;5.90;;;3.35;;
63945;SDS011;50122;56.330;43.838;2022-12-18T16:42:16;7.75;;;4.80;;
63945;SDS011;50122;56.330;43.838;2022-12-18T16:44:47;13.35;;;6.88;;
63945;SDS011;50122;56.330;43.838;2022-12-18T16:47:15;11.70;;;5.55;;
63945;SDS011;50122;56.330;43.838;2022-12-18T16:49:42;9.68;;;5.90;;
63945;SDS011;50122;56.330;43.838;2022-12-18T16:52:11;8.40;;;5.40;;
63945;SDS011;50122;56.330;43.838;2022-12-18T16:54:37;8.43;;;5.43;;
63945;SDS011;50122;56.330;43.838;2022-12-18T16:57:04;10.45;;;5.15;;
63945;SDS011;50122;56.330;43.838;2022-12-18T16:59:31;7.97;;;5.15;;
63945;SDS011;50122;56.330;43.838;2022-12-18T17:01:58;8.82;;;5.18;;
63945;SDS011;50122;56.330;43.838;2022-12-18T17:04:24;6.60;;;3.42;;
63945;SDS011;50122;56.330;43.838;2022-12-18T17:06:52;7.68;;;4.82;;
63945;SDS011;50122;56.330;43.838;2022-12-18T17:09:19;8.05;;;4.72;;
63945;SDS011;50122;56.330;43.838;2022-12-18T17:11:54;8.55;;;4.82;;
63945;SDS011;50122;56.330;43.838;2022-12-18T17:14:22;6.03;;;3.30;;
63945;SDS011;50122;56.330;43.838;2022-12-18T17:16:50;6.45;;;3.88;;
63945;SDS011;50122;56.330;43.838;2022-12-18T17:19:39;4.47;;;2.67;;
63945;SDS011;50122;56.330;43.838;2022-12-18T17:22:05;5.47;;;3.63;;
63945;SDS011;50122;56.330;43.838;2022-12-18T17:24:34;1.77;;;1.60;;
63945;SDS011;50122;56.330;43.838;2022-12-18T17:27:02;4.55;;;2.10;;
63945;SDS011;50122;56.330;43.838;2022-12-18T17:29:31;5.63;;;2.78;;
63945;SDS011;50122;56.330;43.838;2022-12-18T17:32:08;8.15;;;4.97;;
63945;SDS011;50122;56.330;43.838;2022-12-18T17:34:35;3.78;;;2.70;;
63945;SDS011;50122;56.330;43.838;2022-12-18T17:37:03;5.63;;;3.10;;
63945;SDS011;50122;56.330;43.838;2022-12-18T17:39:30;2.97;;;2.65;;
63945;SDS011;50122;56.330;43.838;2022-12-18T17:41:57;7.25;;;4.55;;
63945;SDS011;50122;56.330;43.838;2022-12-18T17:44:24;8.77;;;4.53;;
63945;SDS011;50122;56.330;43.838;2022-12-18T17:46:51;6.57;;;3.60;;
63945;SDS011;50122;56.330;43.838;2022-12-18T17:52:44;5.00;;;2.08;;
63945;SDS011;50122;56.330;43.838;2022-12-18T17:55:20;6.78;;;2.92;;
63945;SDS011;50122;56.330;43.838;2022-12-18T17:57:47;5.45;;;2.83;;
63945;SDS011;50122;56.330;43.838;2022-12-18T18:00:13;7.65;;;4.40;;
63945;SDS011;50122;56.330;43.838;2022-12-18T18:02:40;9.07;;;5.80;;
63945;SDS011;50122;56.330;43.838;2022-12-18T18:05:07;5.30;;;3.08;;
63945;SDS011;50122;56.330;43.838;2022-12-18T18:07:36;7.05;;;3.53;;
63945;SDS011;50122;56.330;43.838;2022-12-18T18:10:04;4.20;;;2.97;;
63945;SDS011;50122;56.330;43.838;2022-12-18T18:12:49;3.25;;;2.90;;
63945;SDS011;50122;56.330;43.838;2022-12-18T18:15:34;5.78;;;3.28;;
63945;SDS011;50122;56.330;43.838;2022-12-18T18:18:03;6.18;;;3.58;;
63945;SDS011;50122;56.330;43.838;2022-12-18T18:20:29;7.88;;;4.10;;
63945;SDS011;50122;56.330;43.838;2022-12-18T18:23:00;6.53;;;3.88;;
63945;SDS011;50122;56.330;43.838;2022-12-18T18:25:27;5.18;;;2.72;;
63945;SDS011;50122;56.330;43.838;2022-12-18T18:28:02;3.95;;;2.35;;
63945;SDS011;50122;56.330;43.838;2022-12-18T18:30:35;3.40;;;2.30;;
63945;SDS011;50122;56.330;43.838;2022-12-18T18:33:02;6.72;;;4.47;;
63945;SDS011;50122;56.330;43.838;2022-12-18T18:35:48;8.02;;;4.70;;
63945;SDS011;50122;56.330;43.838;2022-12-18T18:38:20;5.82;;;3.45;;
63945;SDS011;50122;56.330;43.838;2022-12-18T18:40:46;8.32;;;4.80;;
63945;SDS011;50122;56.330;43.838;2022-12-18T18:43:13;6.03;;;4.20;;
63945;SDS011;50122;56.330;43.838;2022-12-18T18:45:43;6.35;;;4.10;;
63945;SDS011;50122;56.330;43.838;2022-12-18T18:48:13;5.82;;;3.38;;
63945;SDS011;50122;56.330;43.838;2022-12-18T18:50:39;5.82;;;2.85;;
63945;SDS011;50122;56.330;43.838;2022-12-18T18:53:25;10.57;;;5.85;;
63945;SDS011;50122;56.330;43.838;2022-12-18T18:56:02;5.20;;;3.70;;
63945;SDS011;50122;56.330;43.838;2022-12-18T18:58:49;5.68;;;3.13;;
63945;SDS011;50122;56.330;43.838;2022-12-18T19:01:17;4.63;;;3.13;;
63945;SDS011;50122;56.330;43.838;2022-12-18T19:03:56;5.53;;;3.33;;
63945;SDS011;50122;56.330;43.838;2022-12-18T19:06:23;5.15;;;3.45;;
63945;SDS011;50122;56.330;43.838;2022-12-18T19:08:54;3.45;;;2.25;;
63945;SDS011;50122;56.330;43.838;2022-12-18T19:11:24;6.88;;;4.07;;
63945;SDS011;50122;56.330;43.838;2022-12-18T19:14:11;4.53;;;2.55;;
63945;SDS011;50122;56.330;43.838;2022-12-18T19:16:39;3.97;;;2.70;;
63945;SDS011;50122;56.330;43.838;2022-12-18T19:19:07;9.63;;;5.43;;
63945;SDS011;50122;56.330;43.838;2022-12-18T19:21:36;7.15;;;3.20;;
63945;SDS011;50122;56.330;43.838;2022-12-18T19:24:05;5.18;;;3.38;;
63945;SDS011;50122;56.330;43.838;2022-12-18T19:26:32;3.75;;;2.63;;
63945;SDS011;50122;56.330;43.838;2022-12-18T19:29:06;5.38;;;3.33;;
63945;SDS011;50122;56.330;43.838;2022-12-18T19:31:37;2.47;;;2.20;;
63945;SDS011;50122;56.330;43.838;2022-12-18T19:34:08;2.60;;;2.13;;
63945;SDS011;50122;56.330;43.838;2022-12-18T19:36:36;8.20;;;3.90;;
63945;SDS011;50122;56.330;43.838;2022-12-18T19:39:14;3.03;;;2.30;;
63945;SDS011;50122;56.330;43.838;2022-12-18T19:41:44;3.53;;;2.45;;
63945;SDS011;50122;56.330;43.838;2022-12-18T19:44:12;7.03;;;3.70;;
63945;SDS011;50122;56.330;43.838;2022-12-18T19:46:41;4.53;;;2.63;;
63945;SDS011;50122;56.330;43.838;2022-12-18T19:49:08;6.45;;;3.00;;
63945;SDS011;50122;56.330;43.838;2022-12-18T19:51:36;4.03;;;2.35;;
63945;SDS011;50122;56.330;43.838;2022-12-18T19:54:05;5.90;;;3.47;;
63945;SDS011;50122;56.330;43.838;2022-12-18T19:56:38;4.80;;;3.15;;
63945;SDS011;50122;56.330;43.838;2022-12-18T19:59:14;6.15;;;2.83;;
63945;SDS011;50122;56.330;43.838;2022-12-18T20:01:46;5.72;;;3.05;;
63945;SDS011;50122;56.330;43.838;2022-12-18T20:04:13;4.60;;;3.10;;
63945;SDS011;50122;56.330;43.838;2022-12-18T20:06:49;4.13;;;2.53;;
63945;SDS011;50122;56.330;43.838;2022-12-18T20:09:18;3.55;;;2.13;;
63945;SDS011;50122;56.330;43.838;2022-12-18T20:11:46;5.72;;;2.83;;
63945;SDS011;50122;56.330;43.838;2022-12-18T20:14:17;1.70;;;1.58;;
63945;SDS011;50122;56.330;43.838;2022-12-18T20:16:48;3.35;;;2.30;;
63945;SDS011;50122;56.330;43.838;2022-12-18T20:19:18;5.60;;;3.03;;
63945;SDS011;50122;56.330;43.838;2022-12-18T20:21:50;5.38;;;2.55;;
63945;SDS011;50122;56.330;43.838;2022-12-18T20:24:20;5.50;;;3.22;;
63945;SDS011;50122;56.330;43.838;2022-12-18T20:26:50;4.70;;;3.33;;
63945;SDS011;50122;56.330;43.838;2022-12-18T20:29:20;6.63;;;3.50;;
63945;SDS011;50122;56.330;43.838;2022-12-18T20:31:46;4.68;;;3.65;;
63945;SDS011;50122;56.330;43.838;2022-12-18T20:34:13;1.77;;;1.55;;
63945;SDS011;50122;56.330;43.838;2022-12-18T20:36:40;5.70;;;3.13;;
63945;SDS011;50122;56.330;43.838;2022-12-18T20:39:07;4.80;;;2.67;;
63945;SDS011;50122;56.330;43.838;2022-12-18T20:41:36;5.35;;;2.53;;
63945;SDS011;50122;56.330;43.838;2022-12-18T20:44:10;6.70;;;2.60;;
63945;SDS011;50122;56.330;43.838;2022-12-18T20:46:51;8.32;;;3.58;;
63945;SDS011;50122;56.330;43.838;2022-12-18T20:49:19;4.05;;;2.63;;
63945;SDS011;50122;56.330;43.838;2022-12-18T20:51:48;1.50;;;1.40;;
63945;SDS011;50122;56.330;43.838;2022-12-18T20:54:16;4.97;;;3.05;;
63945;SDS011;50122;56.330;43.838;2022-12-18T20:56:43;5.15;;;2.67;;
63945;SDS011;50122;56.330;43.838;2022-12-18T20:59:09;3.30;;;2.60;;
63945;SDS011;50122;56.330;43.838;2022-12-18T21:01:36;2.40;;;2.00;;
63945;SDS011;50122;56.330;43.838;2022-12-18T21:04:09;3.90;;;2.13;;
63945;SDS011;50122;56.330;43.838;2022-12-18T21:06:36;3.90;;;2.70;;
63945;SDS011;50122;56.330;43.838;2022-12-18T21:09:02;2.05;;;1.77;;
63945;SDS011;50122;56.330;43.838;2022-12-18T21:11:31;1.67;;;1.55;;
63945;SDS011;50122;56.330;43.838;2022-12-18T21:14:18;1.85;;;1.65;;
63945;SDS011;50122;56.330;43.838;2022-12-18T21:16:47;5.50;;;3.20;;
63945;SDS011;50122;56.330;43.838;2022-12-18T21:19:16;6.35;;;3.63;;
63945;SDS011;50122;56.330;43.838;2022-12-18T21:21:44;1.50;;;1.40;;
63945;SDS011;50122;56.330;43.838;2022-12-18T21:24:11;5.97;;;1.77;;
63945;SDS011;50122;56.330;43.838;2022-12-18T21:26:38;2.53;;;2.05;;
63945;SDS011;50122;56.330;43.838;2022-12-18T21:29:12;2.38;;;2.10;;
63945;SDS011;50122;56.330;43.838;2022-12-18T21:31:44;2.67;;;2.28;;
63945;SDS011;50122;56.330;43.838;2022-12-18T21:34:13;3.55;;;2.13;;
63945;SDS011;50122;56.330;43.838;2022-12-18T21:36:42;2.22;;;1.75;;
63945;SDS011;50122;56.330;43.838;2022-12-18T21:39:12;3.42;;;1.92;;
63945;SDS011;50122;56.330;43.838;2022-12-18T21:41:40;3.28;;;2.40;;
63945;SDS011;50122;56.330;43.838;2022-12-18T21:46:54;4.07;;;2.65;;
63945;SDS011;50122;56.330;43.838;2022-12-18T21:49:37;1.98;;;1.52;;
63945;SDS011;50122;56.330;43.838;2022-12-18T21:52:04;3.05;;;2.08;;
63945;SDS011;50122;56.330;43.838;2022-12-18T21:54:30;3.75;;;2.10;;
63945;SDS011;50122;56.330;43.838;2022-12-18T21:56:58;3.63;;;2.33;;
63945;SDS011;50122;56.330;43.838;2022-12-18T22:01:56;2.70;;;2.10;;
63945;SDS011;50122;56.330;43.838;2022-12-18T22:04:25;3.35;;;2.42;;
63945;SDS011;50122;56.330;43.838;2022-12-18T22:06:53;2.97;;;2.20;;
63945;SDS011;50122;56.330;43.838;2022-12-18T22:09:21;2.90;;;2.10;;
63945;SDS011;50122;56.330;43.838;2022-12-18T22:11:49;2.67;;;1.70;;
63945;SDS011;50122;56.330;43.838;2022-12-18T22:14:16;4.03;;;2.03;;
63945;SDS011;50122;56.330;43.838;2022-12-18T22:16:43;2.80;;;2.17;;
63945;SDS011;50122;56.330;43.838;2022-12-18T22:19:10;4.53;;;2.75;;
63945;SDS011;50122;56.330;43.838;2022-12-18T22:21:41;2.30;;;1.77;;
63945;SDS011;50122;56.330;43.838;2022-12-18T22:26:49;3.58;;;2.33;;
63945;SDS011;50122;56.330;43.838;2022-12-18T22:29:22;4.40;;;2.70;;
63945;SDS011;50122;56.330;43.838;2022-12-18T22:32:16;4.03;;;2.20;;
63945;SDS011;50122;56.330;43.838;2022-12-18T22:34:56;4.53;;;2.63;;
63945;SDS011;50122;56.330;43.838;2022-12-18T22:37:32;4.32;;;2.20;;
63945;SDS011;50122;56.330;43.838;2022-12-18T22:39:59;1.50;;;1.40;;
63945;SDS011;50122;56.330;43.838;2022-12-18T22:42:28;9.93;;;2.60;;
63945;SDS011;50122;56.330;43.838;2022-12-18T22:44:57;4.60;;;2.85;;
63945;SDS011;50122;56.330;43.838;2022-12-18T22:47:27;5.10;;;3.13;;
63945;SDS011;50122;56.330;43.838;2022-12-18T22:49:56;3.97;;;1.73;;
63945;SDS011;50122;56.330;43.838;2022-12-18T22:52:23;3.58;;;2.10;;
63945;SDS011;50122;56.330;43.838;2022-12-18T22:54:50;3.08;;;2.10;;
63945;SDS011;50122;56.330;43.838;2022-12-18T22:57:18;4.50;;;2.95;;
63945;SDS011;50122;56.330;43.838;2022-12-18T22:59:45;3.20;;;2.65;;
63945;SDS011;50122;56.330;43.838;2022-12-18T23:02:13;3.53;;;2.50;;
63945;SDS011;50122;56.330;43.838;2022-12-18T23:04:40;4.28;;;2.67;;
63945;SDS011;50122;56.330;43.838;2022-12-18T23:07:06;4.70;;;3.08;;
63945;SDS011;50122;56.330;43.838;2022-12-18T23:09:36;3.53;;;1.92;;
63945;SDS011;50122;56.330;43.838;2022-12-18T23:12:03;4.70;;;2.58;;
63945;SDS011;50122;56.330;43.838;2022-12-18T23:14:29;2.53;;;1.90;;
63945;SDS011;50122;56.330;43.838;2022-12-18T23:16:57;5.38;;;2.63;;
63945;SDS011;50122;56.330;43.838;2022-12-18T23:19:23;5.05;;;2.85;;
63945;SDS011;50122;56.330;43.838;2022-12-18T23:21:50;4.75;;;2.70;;
63945;SDS011;50122;56.330;43.838;2022-12-18T23:24:19;3.70;;;2.13;;
63945;SDS011;50122;56.330;43.838;2022-12-18T23:26:46;1.85;;;1.65;;
63945;SDS011;50122;56.330;43.838;2022-12-18T23:29:13;1.73;;;1.63;;
63945;SDS011;50122;56.330;43.838;2022-12-18T23:31:40;3.30;;;2.38;;
63945;SDS011;50122;56.330;43.838;2022-12-18T23:34:09;5.25;;;2.35;;
63945;SDS011;50122;56.330;43.838;2022-12-18T23:36:38;2.40;;;1.85;;
63945;SDS011;50122;56.330;43.838;2022-12-18T23:39:12;2.83;;;1.92;;
63945;SDS011;50122;56.330;43.838;2022-12-18T23:41:54;2.45;;;1.90;;
63945;SDS011;50122;56.330;43.838;2022-12-18T23:44:21;2.33;;;1.92;;
63945;SDS011;50122;56.330;43.838;2022-12-18T23:46:48;1.58;;;1.45;;
63945;SDS011;50122;56.330;43.838;2022-12-18T23:49:15;3.15;;;2.03;;
63945;SDS011;50122;56.330;43.838;2022-12-18T23:51:44;4.68;;;2.85;;
63945;SDS011;50122;56.330;43.838;2022-12-18T23:54:10;6.32;;;2.53;;
63945;SDS011;50122;56.330;43.838;2022-12-18T23:56:37;3.38;;;2.30;;
63945;SDS011;50122;56.330;43.838;2022-12-18T23:59:04;2.92;;;1.90;;
